Time,TemperatureF,DewpointF,PressureIn,WindDirection,WindDirectionDegrees,WindSpeedMPH,WindSpeedGustMPH,Humidity,HourlyPrecipIn,Conditions,Clouds,dailyrainin,SoftwareType,DateUTC
2013-07-05 07:54:00,56.9,47.6,29.69,SSW,202,0.0,0.0,71,0.00,,---,0.00,VWS V14.00,2013-07-05 12:54:00,
2013-07-05 07:55:00,60.9,49.5,29.70,SW,232,0.0,0.0,66,0.00,,---,0.00,VWS V14.00,2013-07-05 12:55:00,
2013-07-05 07:59:00,61.3,49.5,29.70,SW,232,0.0,0.0,65,0.00,,---,0.00,VWS V14.00,2013-07-05 12:59:00,
2013-07-05 08:00:00,61.3,49.0,29.70,SW,232,0.0,0.0,64,0.00,,---,0.00,VWS V14.00,2013-07-05 13:00:00,
2013-07-05 08:05:00,62.1,48.9,29.70,SW,232,0.0,0.0,62,0.00,,---,0.00,VWS V14.00,2013-07-05 13:05:00,
2013-07-05 08:06:00,62.6,49.4,29.70,SW,232,0.0,0.0,62,0.00,,---,0.00,VWS V14.00,2013-07-05 13:06:00,
2013-07-05 08:10:00,63.2,49.1,29.70,SW,232,0.0,0.0,60,0.00,,---,0.00,VWS V14.00,2013-07-05 13:10:00,
2013-07-05 08:11:00,63.4,49.3,29.70,SW,232,0.0,0.0,60,0.00,,---,0.00,VWS V14.00,2013-07-05 13:11:00,
2013-07-05 08:15:00,64.0,49.8,29.71,SW,232,0.0,0.0,60,0.00,,---,0.00,VWS V14.00,2013-07-05 13:15:00,
2013-07-05 08:16:00,64.2,50.0,29.71,SW,232,0.0,0.0,60,0.00,,---,0.00,VWS V14.00,2013-07-05 13:16:00,
2013-07-05 08:17:00,64.2,49.6,29.71,SW,232,0.0,0.0,59,0.00,,---,0.00,VWS V14.00,2013-07-05 13:17:00,
2013-07-05 08:20:00,64.7,49.1,29.71,SW,232,0.0,0.0,57,0.00,,---,0.00,VWS V14.00,2013-07-05 13:20:00,
2013-07-05 08:21:00,64.8,48.8,29.71,SW,232,0.0,0.0,56,0.00,,---,0.00,VWS V14.00,2013-07-05 13:21:00,
2013-07-05 08:22:00,65.0,48.9,29.71,SW,232,0.0,0.0,56,0.00,,---,0.00,VWS V14.00,2013-07-05 13:22:00,
2013-07-05 08:25:00,65.3,49.2,29.71,SW,232,0.0,0.0,56,0.00,,---,0.00,VWS V14.00,2013-07-05 13:25:00,
2013-07-05 08:26:00,65.5,49.4,29.71,SW,232,0.0,0.0,56,0.00,,---,0.00,VWS V14.00,2013-07-05 13:26:00,
2013-07-05 08:27:00,65.5,49.4,29.71,SW,232,0.0,0.0,56,0.00,,---,0.00,VWS V14.00,2013-07-05 13:27:00,
2013-07-05 08:28:00,65.6,50.0,29.71,SW,232,0.0,0.0,57,0.00,,---,0.00,VWS V14.00,2013-07-05 13:28:00,
2013-07-05 08:31:00,66.1,50.0,29.70,SW,232,0.0,0.0,56,0.00,,---,0.00,VWS V14.00,2013-07-05 13:31:00,
2013-07-05 08:32:00,66.4,50.2,29.70,SW,232,0.0,0.0,56,0.00,,---,0.00,VWS V14.00,2013-07-05 13:32:00,
2013-07-05 08:33:00,66.8,49.6,29.70,SW,232,0.0,0.0,54,0.00,,---,0.00,VWS V14.00,2013-07-05 13:33:00,
2013-07-05 08:36:00,67.8,49.0,29.70,SW,232,0.0,0.0,51,0.00,,---,0.00,VWS V14.00,2013-07-05 13:36:00,
2013-07-05 08:37:00,68.1,49.3,29.70,SW,232,0.0,0.0,51,0.00,,---,0.00,VWS V14.00,2013-07-05 13:37:00,
2013-07-05 08:41:00,68.9,49.5,29.70,SW,232,0.0,0.0,50,0.00,,---,0.00,VWS V14.00,2013-07-05 13:41:00,
2013-07-05 08:42:00,69.3,48.8,29.70,SW,232,0.0,0.0,48,0.00,,---,0.00,VWS V14.00,2013-07-05 13:42:00,
2013-07-05 08:46:00,70.3,48.6,29.68,WSW,237,0.0,0.0,46,0.00,,---,0.00,VWS V14.00,2013-07-05 13:46:00,
2013-07-05 08:47:00,70.6,48.2,29.68,WSW,237,0.0,0.0,45,0.00,,---,0.00,VWS V14.00,2013-07-05 13:47:00,
2013-07-05 08:51:00,71.3,48.9,29.68,SW,217,0.0,0.0,45,0.00,,---,0.00,VWS V14.00,2013-07-05 13:51:00,
2013-07-05 08:52:00,71.3,49.5,29.68,SW,217,0.0,0.0,46,0.00,,---,0.00,VWS V14.00,2013-07-05 13:52:00,
2013-07-05 08:56:00,72.0,48.9,29.68,SW,229,0.0,0.0,44,0.00,,---,0.00,VWS V14.00,2013-07-05 13:56:00,
2013-07-05 08:57:00,72.1,49.0,29.68,SW,229,0.0,0.0,44,0.00,,---,0.00,VWS V14.00,2013-07-05 13:57:00,
2013-07-05 08:58:00,72.1,48.4,29.68,SW,229,0.0,0.0,43,0.00,,---,0.00,VWS V14.00,2013-07-05 13:58:00,
2013-07-05 09:01:00,72.7,48.3,29.67,SW,226,0.0,0.0,42,0.00,,---,0.00,VWS V14.00,2013-07-05 14:01:00,
2013-07-05 09:03:00,73.0,48.6,29.67,SW,226,0.0,0.0,42,0.00,,---,0.00,VWS V14.00,2013-07-05 14:03:00,
2013-07-05 09:04:00,73.2,48.1,29.67,SW,222,0.0,0.0,41,0.00,,---,0.00,VWS V14.00,2013-07-05 14:04:00,
2013-07-05 09:07:00,73.7,47.2,29.67,SSW,195,1.0,6.0,39,0.00,,---,0.00,VWS V14.00,2013-07-05 14:07:00,
2013-07-05 09:08:00,73.7,47.2,29.67,SSW,200,0.0,6.0,39,0.00,,---,0.00,VWS V14.00,2013-07-05 14:08:00,
2013-07-05 09:10:00,73.9,48.1,29.67,SSW,205,0.0,6.0,40,0.00,,---,0.00,VWS V14.00,2013-07-05 14:10:00,
2013-07-05 09:13:00,74.2,49.0,29.67,SSW,205,0.0,6.0,41,0.00,,---,0.00,VWS V14.00,2013-07-05 14:13:00,
2013-07-05 09:14:00,74.2,48.3,29.67,SSW,205,0.0,6.0,40,0.00,,---,0.00,VWS V14.00,2013-07-05 14:14:00,
2013-07-05 09:15:00,74.4,48.5,29.67,SSW,205,0.0,6.0,40,0.00,,---,0.00,VWS V14.00,2013-07-05 14:15:00,
2013-07-05 09:18:00,74.4,48.5,29.67,SSW,208,0.0,6.0,40,0.00,,---,0.00,VWS V14.00,2013-07-05 14:18:00,
2013-07-05 09:20:00,74.6,48.7,29.67,SSW,208,0.0,6.0,40,0.00,,---,0.00,VWS V14.00,2013-07-05 14:20:00,
2013-07-05 09:23:00,74.9,48.3,29.67,SSW,208,0.0,6.0,39,0.00,,---,0.00,VWS V14.00,2013-07-05 14:23:00,
2013-07-05 09:25:00,75.1,48.5,29.67,SSW,213,0.0,6.0,39,0.00,,---,0.00,VWS V14.00,2013-07-05 14:25:00,
2013-07-05 09:28:00,75.4,47.3,29.67,SW,216,0.0,6.0,37,0.00,,---,0.00,VWS V14.00,2013-07-05 14:28:00,
2013-07-05 09:29:00,75.4,47.3,29.67,SW,216,0.0,6.0,37,0.00,,---,0.00,VWS V14.00,2013-07-05 14:29:00,
2013-07-05 09:30:00,75.6,47.5,29.67,SSW,208,0.0,0.0,37,0.00,,---,0.00,VWS V14.00,2013-07-05 14:30:00,
2013-07-05 09:34:00,75.8,47.0,29.67,SSW,202,0.0,11.0,36,0.00,,---,0.00,VWS V14.00,2013-07-05 14:34:00,
2013-07-05 09:35:00,76.0,47.2,29.67,SSW,200,0.0,11.0,36,0.00,,---,0.00,VWS V14.00,2013-07-05 14:35:00,
2013-07-05 09:36:00,76.0,47.2,29.67,SSW,200,0.0,11.0,36,0.00,,---,0.00,VWS V14.00,2013-07-05 14:36:00,
2013-07-05 09:39:00,76.0,47.9,29.67,SW,236,0.0,11.0,37,0.00,,---,0.00,VWS V14.00,2013-07-05 14:39:00,
2013-07-05 09:40:00,76.0,48.6,29.67,SW,236,0.0,11.0,38,0.00,,---,0.00,VWS V14.00,2013-07-05 14:40:00,
2013-07-05 09:41:00,76.0,47.9,29.67,WSW,237,0.0,11.0,37,0.00,,---,0.00,VWS V14.00,2013-07-05 14:41:00,
2013-07-05 09:45:00,76.1,48.0,29.66,WSW,240,0.0,11.0,37,0.00,,---,0.00,VWS V14.00,2013-07-05 14:45:00,
2013-07-05 09:46:00,76.1,48.0,29.66,WSW,240,0.0,11.0,37,0.00,,---,0.00,VWS V14.00,2013-07-05 14:46:00,
2013-07-05 09:50:00,76.1,48.0,29.66,WSW,237,0.0,11.0,37,0.00,,---,0.00,VWS V14.00,2013-07-05 14:50:00,
2013-07-05 09:51:00,76.1,48.0,29.66,WSW,237,0.0,11.0,37,0.00,,---,0.00,VWS V14.00,2013-07-05 14:51:00,
2013-07-05 09:52:00,76.1,48.0,29.66,WSW,237,0.0,11.0,37,0.00,,---,0.00,VWS V14.00,2013-07-05 14:52:00,
2013-07-05 09:55:00,76.3,48.1,29.66,SW,230,0.0,11.0,37,0.00,,---,0.00,VWS V14.00,2013-07-05 14:55:00,
2013-07-05 09:56:00,76.3,48.1,29.66,SW,230,0.0,11.0,37,0.00,,---,0.00,VWS V14.00,2013-07-05 14:56:00,
2013-07-05 09:57:00,76.5,48.3,29.66,SW,234,0.0,11.0,37,0.00,,---,0.00,VWS V14.00,2013-07-05 14:57:00,
2013-07-05 09:58:00,76.3,47.4,29.66,SW,232,0.0,11.0,36,0.00,,---,0.00,VWS V14.00,2013-07-05 14:58:00,
2013-07-05 10:00:00,76.7,47.8,29.67,SW,232,0.0,0.0,36,0.00,,---,0.00,VWS V14.00,2013-07-05 15:00:00,
2013-07-05 10:01:00,76.8,47.8,29.67,SW,232,0.0,0.0,36,0.00,,---,0.00,VWS V14.00,2013-07-05 15:01:00,
2013-07-05 10:02:00,76.8,47.8,29.67,SW,226,0.0,0.0,36,0.00,,---,0.00,VWS V14.00,2013-07-05 15:02:00,
2013-07-05 10:04:00,77.2,47.5,29.67,SW,226,0.0,0.0,35,0.00,,---,0.00,VWS V14.00,2013-07-05 15:04:00,
2013-07-05 10:05:00,77.4,47.6,29.67,SW,226,0.0,0.0,35,0.00,,---,0.00,VWS V14.00,2013-07-05 15:05:00,
2013-07-05 10:06:00,77.4,47.6,29.67,West,272,6.0,7.0,35,0.00,,---,0.00,VWS V14.00,2013-07-05 15:06:00,
2013-07-05 10:07:00,77.2,47.5,29.67,West,271,0.0,7.0,35,0.00,,---,0.00,VWS V14.00,2013-07-05 15:07:00,
2013-07-05 10:10:00,77.4,47.6,29.67,South,189,0.0,7.0,35,0.00,,---,0.00,VWS V14.00,2013-07-05 15:10:00,
2013-07-05 10:11:00,77.6,47.8,29.67,South,189,0.0,7.0,35,0.00,,---,0.00,VWS V14.00,2013-07-05 15:11:00,
2013-07-05 10:12:00,77.6,47.8,29.67,South,189,0.0,7.0,35,0.00,,---,0.00,VWS V14.00,2013-07-05 15:12:00,
2013-07-05 10:15:00,77.9,47.3,29.68,South,182,6.0,7.0,34,0.00,,---,0.00,VWS V14.00,2013-07-05 15:15:00,
2013-07-05 10:16:00,77.9,47.3,29.68,SSE,162,6.0,7.0,34,0.00,,---,0.00,VWS V14.00,2013-07-05 15:16:00,
2013-07-05 10:17:00,77.9,47.3,29.68,SSE,167,6.0,7.0,34,0.00,,---,0.00,VWS V14.00,2013-07-05 15:17:00,
2013-07-05 10:20:00,77.7,46.3,29.68,SSW,192,0.0,13.0,33,0.00,,---,0.00,VWS V14.00,2013-07-05 15:20:00,
2013-07-05 10:22:00,77.9,46.5,29.68,South,171,2.0,13.0,33,0.00,,---,0.00,VWS V14.00,2013-07-05 15:22:00,
2013-07-05 10:23:00,77.9,48.1,29.68,South,184,7.0,13.0,35,0.00,,---,0.00,VWS V14.00,2013-07-05 15:23:00,
2013-07-05 10:25:00,78.3,47.7,29.68,South,178,0.0,13.0,34,0.00,,---,0.00,VWS V14.00,2013-07-05 15:25:00,
2013-07-05 10:27:00,78.3,47.7,29.68,SSW,198,0.0,13.0,34,0.00,,---,0.00,VWS V14.00,2013-07-05 15:27:00,
2013-07-05 10:28:00,78.5,47.8,29.68,SSW,198,0.0,13.0,34,0.00,,---,0.00,VWS V14.00,2013-07-05 15:28:00,
2013-07-05 10:30:00,78.5,47.0,29.68,South,175,8.0,12.0,33,0.00,,---,0.00,VWS V14.00,2013-07-05 15:30:00,
2013-07-05 10:32:00,78.3,46.9,29.68,SSW,202,0.0,13.0,33,0.00,,---,0.00,VWS V14.00,2013-07-05 15:32:00,
2013-07-05 10:33:00,78.5,47.0,29.68,SSW,200,6.0,13.0,33,0.00,,---,0.00,VWS V14.00,2013-07-05 15:33:00,
2013-07-05 10:35:00,78.1,46.7,29.68,SSW,200,7.0,13.0,33,0.00,,---,0.00,VWS V14.00,2013-07-05 15:35:00,
2013-07-05 10:37:00,78.3,46.9,29.68,SSW,196,6.0,13.0,33,0.00,,---,0.00,VWS V14.00,2013-07-05 15:37:00,
2013-07-05 10:38:00,78.3,46.9,29.68,South,178,0.0,13.0,33,0.00,,---,0.00,VWS V14.00,2013-07-05 15:38:00,
2013-07-05 10:40:00,78.5,46.2,29.68,SSW,196,8.0,13.0,32,0.00,,---,0.00,VWS V14.00,2013-07-05 15:40:00,
2013-07-05 10:42:00,78.3,46.0,29.68,SW,215,3.0,13.0,32,0.00,,---,0.00,VWS V14.00,2013-07-05 15:42:00,
2013-07-05 10:43:00,78.3,46.0,29.68,SSW,209,2.0,13.0,32,0.00,,---,0.00,VWS V14.00,2013-07-05 15:43:00,
2013-07-05 10:45:00,78.6,47.1,29.68,South,176,3.0,13.0,33,0.00,,---,0.00,VWS V14.00,2013-07-05 15:45:00,
2013-07-05 10:47:00,78.6,47.9,29.68,South,169,3.0,13.0,34,0.00,,---,0.00,VWS V14.00,2013-07-05 15:47:00,
2013-07-05 10:48:00,78.6,47.9,29.68,South,186,3.0,13.0,34,0.00,,---,0.00,VWS V14.00,2013-07-05 15:48:00,
2013-07-05 10:50:00,79.0,45.8,29.68,South,176,0.0,13.0,31,0.00,,---,0.00,VWS V14.00,2013-07-05 15:50:00,
2013-07-05 10:53:00,79.2,46.0,29.68,SSW,195,0.0,13.0,31,0.00,,---,0.00,VWS V14.00,2013-07-05 15:53:00,
2013-07-05 10:54:00,79.4,45.3,29.68,SSE,158,4.0,13.0,30,0.00,,---,0.00,VWS V14.00,2013-07-05 15:54:00,
2013-07-05 10:55:00,79.2,46.0,29.68,South,169,1.0,13.0,31,0.00,,---,0.00,VWS V14.00,2013-07-05 15:55:00,
2013-07-05 10:56:00,79.2,46.0,29.68,SSE,157,2.0,13.0,31,0.00,,---,0.00,VWS V14.00,2013-07-05 15:56:00,
2013-07-05 10:58:00,79.4,46.2,29.68,South,189,0.0,13.0,31,0.00,,---,0.00,VWS V14.00,2013-07-05 15:58:00,
2013-07-05 10:59:00,79.6,46.3,29.68,South,185,3.0,13.0,31,0.00,,---,0.00,VWS V14.00,2013-07-05 15:59:00,
2013-07-05 11:00:00,79.8,46.5,29.68,South,174,5.0,11.0,31,0.00,,---,0.00,VWS V14.00,2013-07-05 16:00:00,
2013-07-05 11:01:00,79.6,46.3,29.68,South,175,3.0,11.0,31,0.00,,---,0.00,VWS V14.00,2013-07-05 16:01:00,
2013-07-05 11:03:00,79.6,43.7,29.68,SSW,210,5.0,11.0,28,0.00,,---,0.00,VWS V14.00,2013-07-05 16:03:00,
2013-07-05 11:04:00,79.8,43.8,29.68,SSW,202,9.0,11.0,28,0.00,,---,0.00,VWS V14.00,2013-07-05 16:04:00,
2013-07-05 11:05:00,79.8,43.8,29.68,SSE,167,3.0,11.0,28,0.00,,---,0.00,VWS V14.00,2013-07-05 16:05:00,
2013-07-05 11:06:00,79.6,43.7,29.68,South,176,1.0,11.0,28,0.00,,---,0.00,VWS V14.00,2013-07-05 16:06:00,
2013-07-05 11:08:00,80.3,45.2,29.68,South,181,2.0,11.0,29,0.00,,---,0.00,VWS V14.00,2013-07-05 16:08:00,
2013-07-05 11:09:00,80.3,45.2,29.68,South,169,5.0,11.0,29,0.00,,---,0.00,VWS V14.00,2013-07-05 16:09:00,
2013-07-05 11:10:00,80.3,46.1,29.68,South,184,7.0,12.0,30,0.00,,---,0.00,VWS V14.00,2013-07-05 16:10:00,
2013-07-05 11:11:00,80.1,45.9,29.68,South,182,5.0,12.0,30,0.00,,---,0.00,VWS V14.00,2013-07-05 16:11:00,
2013-07-05 11:13:00,80.7,45.5,29.69,SSW,195,6.0,12.0,29,0.00,,---,0.00,VWS V14.00,2013-07-05 16:13:00,
2013-07-05 11:14:00,80.7,44.6,29.69,South,171,3.0,12.0,28,0.00,,---,0.00,VWS V14.00,2013-07-05 16:14:00,
2013-07-05 11:15:00,81.1,44.9,29.69,SSW,192,2.0,12.0,28,0.00,,---,0.00,VWS V14.00,2013-07-05 16:15:00,
2013-07-05 11:16:00,80.9,44.8,29.69,South,174,0.0,12.0,28,0.00,,---,0.00,VWS V14.00,2013-07-05 16:16:00,
2013-07-05 11:18:00,81.1,45.9,29.69,South,175,0.0,12.0,29,0.00,,---,0.00,VWS V14.00,2013-07-05 16:18:00,
2013-07-05 11:19:00,81.1,45.9,29.69,SSE,158,0.0,12.0,29,0.00,,---,0.00,VWS V14.00,2013-07-05 16:19:00,
2013-07-05 11:20:00,81.2,45.0,29.69,SSE,154,3.0,12.0,28,0.00,,---,0.00,VWS V14.00,2013-07-05 16:20:00,
2013-07-05 11:21:00,81.2,45.0,29.69,SSE,164,6.0,12.0,28,0.00,,---,0.00,VWS V14.00,2013-07-05 16:21:00,
2013-07-05 11:23:00,81.4,46.1,29.69,South,171,2.0,12.0,29,0.00,,---,0.00,VWS V14.00,2013-07-05 16:23:00,
2013-07-05 11:24:00,81.4,46.1,29.69,South,171,0.0,12.0,29,0.00,,---,0.00,VWS V14.00,2013-07-05 16:24:00,
2013-07-05 11:25:00,81.8,45.5,29.69,SE,143,0.0,12.0,28,0.00,,---,0.00,VWS V14.00,2013-07-05 16:25:00,
2013-07-05 11:26:00,81.8,45.5,29.69,SSE,148,0.0,12.0,28,0.00,,---,0.00,VWS V14.00,2013-07-05 16:26:00,
2013-07-05 11:28:00,82.0,45.7,29.68,South,184,0.0,12.0,28,0.00,,---,0.00,VWS V14.00,2013-07-05 16:28:00,
2013-07-05 11:29:00,82.0,45.7,29.68,South,184,0.0,12.0,28,0.00,,---,0.00,VWS V14.00,2013-07-05 16:29:00,
2013-07-05 11:30:00,82.2,45.9,29.68,South,185,5.0,5.0,28,0.00,,---,0.00,VWS V14.00,2013-07-05 16:30:00,
2013-07-05 11:31:00,82.2,45.9,29.68,South,185,0.0,5.0,28,0.00,,---,0.00,VWS V14.00,2013-07-05 16:31:00,
2013-07-05 11:32:00,82.2,45.9,29.68,SSE,167,0.0,5.0,28,0.00,,---,0.00,VWS V14.00,2013-07-05 16:32:00,
2013-07-05 11:33:00,82.8,46.4,29.68,SE,145,1.0,5.0,28,0.00,,---,0.00,VWS V14.00,2013-07-05 16:33:00,
2013-07-05 11:34:00,82.6,46.2,29.68,South,184,6.0,10.0,28,0.00,,---,0.00,VWS V14.00,2013-07-05 16:34:00,
2013-07-05 11:36:00,82.4,46.1,29.68,SSE,164,3.0,10.0,28,0.00,,---,0.00,VWS V14.00,2013-07-05 16:36:00,
2013-07-05 11:37:00,82.6,45.3,29.68,South,178,0.0,10.0,27,0.00,,---,0.00,VWS V14.00,2013-07-05 16:37:00,
2013-07-05 11:38:00,82.4,46.1,29.68,SSE,155,0.0,10.0,28,0.00,,---,0.00,VWS V14.00,2013-07-05 16:38:00,
2013-07-05 11:39:00,82.4,46.1,29.68,South,178,0.0,10.0,28,0.00,,---,0.00,VWS V14.00,2013-07-05 16:39:00,
2013-07-05 11:41:00,82.8,46.4,29.68,South,188,0.0,10.0,28,0.00,,---,0.00,VWS V14.00,2013-07-05 16:41:00,
2013-07-05 11:42:00,83.0,45.6,29.68,SSW,203,0.0,10.0,27,0.00,,---,0.00,VWS V14.00,2013-07-05 16:42:00,
2013-07-05 11:44:00,82.6,45.3,29.67,SSW,203,5.0,10.0,27,0.00,,---,0.00,VWS V14.00,2013-07-05 16:44:00,
2013-07-05 11:45:00,82.8,45.4,29.67,SSW,198,0.0,10.0,27,0.00,,---,0.00,VWS V14.00,2013-07-05 16:45:00,
2013-07-05 11:46:00,83.0,44.6,29.67,SSW,198,0.0,10.0,26,0.00,,---,0.00,VWS V14.00,2013-07-05 16:46:00,
2013-07-05 11:47:00,82.8,45.4,29.67,SSW,198,0.0,10.0,27,0.00,,---,0.00,VWS V14.00,2013-07-05 16:47:00,
2013-07-05 11:49:00,82.8,45.4,29.67,West,270,7.0,10.0,27,0.00,,---,0.00,VWS V14.00,2013-07-05 16:49:00,
2013-07-05 11:50:00,82.8,45.4,29.67,West,264,0.0,10.0,27,0.00,,---,0.00,VWS V14.00,2013-07-05 16:50:00,
2013-07-05 11:51:00,82.8,46.4,29.67,WSW,241,0.0,12.0,28,0.00,,---,0.00,VWS V14.00,2013-07-05 16:51:00,
2013-07-05 11:53:00,82.4,46.1,29.67,WSW,254,1.0,12.0,28,0.00,,---,0.00,VWS V14.00,2013-07-05 16:53:00,
2013-07-05 11:54:00,82.8,45.4,29.67,SSW,192,0.0,12.0,27,0.00,,---,0.00,VWS V14.00,2013-07-05 16:54:00,
2013-07-05 11:56:00,83.2,45.8,29.67,SW,224,3.0,12.0,27,0.00,,---,0.00,VWS V14.00,2013-07-05 16:56:00,
2013-07-05 11:57:00,82.8,45.4,29.67,West,281,6.0,12.0,27,0.00,,---,0.00,VWS V14.00,2013-07-05 16:57:00,
2013-07-05 11:58:00,83.0,45.6,29.67,SSW,213,0.0,12.0,27,0.00,,---,0.00,VWS V14.00,2013-07-05 16:58:00,
2013-07-05 11:59:00,83.0,45.6,29.67,West,280,10.0,12.0,27,0.00,,---,0.00,VWS V14.00,2013-07-05 16:59:00,
2013-07-05 12:01:00,83.2,46.7,29.67,SSW,203,2.0,3.0,28,0.00,,---,0.00,VWS V14.00,2013-07-05 17:01:00,
2013-07-05 12:02:00,83.2,46.7,29.67,SSW,203,0.0,3.0,28,0.00,,---,0.00,VWS V14.00,2013-07-05 17:02:00,
2013-07-05 12:03:00,83.4,45.0,29.67,SSW,203,0.0,3.0,26,0.00,,---,0.00,VWS V14.00,2013-07-05 17:03:00,
2013-07-05 12:04:00,83.6,45.1,29.67,SW,232,0.0,7.0,26,0.00,,---,0.00,VWS V14.00,2013-07-05 17:04:00,
2013-07-05 12:07:00,83.6,45.1,29.67,SW,229,0.0,7.0,26,0.00,,---,0.00,VWS V14.00,2013-07-05 17:07:00,
2013-07-05 12:08:00,83.6,45.1,29.67,West,275,5.0,7.0,26,0.00,,---,0.00,VWS V14.00,2013-07-05 17:08:00,
2013-07-05 12:09:00,83.4,45.0,29.67,WSW,254,2.0,7.0,26,0.00,,---,0.00,VWS V14.00,2013-07-05 17:09:00,
2013-07-05 12:12:00,83.4,46.0,29.67,West,270,3.0,11.0,27,0.00,,---,0.00,VWS V14.00,2013-07-05 17:12:00,
2013-07-05 12:13:00,83.6,46.1,29.68,WSW,256,1.0,11.0,27,0.00,,---,0.00,VWS V14.00,2013-07-05 17:13:00,
2013-07-05 12:14:00,83.6,46.1,29.68,SW,233,0.0,11.0,27,0.00,,---,0.00,VWS V14.00,2013-07-05 17:14:00,
2013-07-05 12:17:00,83.6,46.1,29.68,SW,224,2.0,11.0,27,0.00,,---,0.00,VWS V14.00,2013-07-05 17:17:00,
2013-07-05 12:18:00,84.1,46.5,29.68,WSW,244,11.0,11.0,27,0.00,,---,0.00,VWS V14.00,2013-07-05 17:18:00,
2013-07-05 12:19:00,84.1,46.5,29.68,West,267,3.0,11.0,27,0.00,,---,0.00,VWS V14.00,2013-07-05 17:19:00,
2013-07-05 12:22:00,84.1,46.5,29.68,South,174,3.0,11.0,27,0.00,,---,0.00,VWS V14.00,2013-07-05 17:22:00,
2013-07-05 12:23:00,84.3,44.7,29.68,South,179,2.0,11.0,25,0.00,,---,0.00,VWS V14.00,2013-07-05 17:23:00,
2013-07-05 12:24:00,84.3,46.7,29.68,SSE,168,1.0,11.0,27,0.00,,---,0.00,VWS V14.00,2013-07-05 17:24:00,
2013-07-05 12:27:00,84.3,44.7,29.68,West,274,0.0,11.0,25,0.00,,---,0.00,VWS V14.00,2013-07-05 17:27:00,
2013-07-05 12:28:00,84.3,44.7,29.68,SSW,213,0.0,11.0,25,0.00,,---,0.00,VWS V14.00,2013-07-05 17:28:00,
2013-07-05 12:29:00,84.0,44.4,29.67,South,188,7.0,11.0,25,0.00,,---,0.00,VWS V14.00,2013-07-05 17:29:00,
2013-07-05 12:30:00,84.3,45.7,29.67,SW,229,2.0,6.0,26,0.00,,---,0.00,VWS V14.00,2013-07-05 17:30:00,
2013-07-05 12:32:00,84.1,45.5,29.67,SSE,167,0.0,7.0,26,0.00,,---,0.00,VWS V14.00,2013-07-05 17:32:00,
2013-07-05 12:33:00,84.1,45.5,29.67,South,175,0.0,7.0,26,0.00,,---,0.00,VWS V14.00,2013-07-05 17:33:00,
2013-07-05 12:34:00,84.1,45.5,29.67,SW,229,6.0,7.0,26,0.00,,---,0.00,VWS V14.00,2013-07-05 17:34:00,
2013-07-05 12:35:00,84.1,45.5,29.67,SW,229,6.0,7.0,26,0.00,,---,0.00,VWS V14.00,2013-07-05 17:35:00,
2013-07-05 12:37:00,84.7,45.0,29.67,SSW,195,0.0,7.0,25,0.00,,---,0.00,VWS V14.00,2013-07-05 17:37:00,
2013-07-05 12:38:00,84.9,45.2,29.67,SSW,199,6.0,7.0,25,0.00,,---,0.00,VWS V14.00,2013-07-05 17:38:00,
2013-07-05 12:39:00,84.9,45.2,29.67,SW,216,7.0,8.0,25,0.00,,---,0.00,VWS V14.00,2013-07-05 17:39:00,
2013-07-05 12:40:00,85.1,45.4,29.67,SSW,209,0.0,8.0,25,0.00,,---,0.00,VWS V14.00,2013-07-05 17:40:00,
2013-07-05 12:43:00,84.9,46.2,29.67,SW,234,0.0,10.0,26,0.00,,---,0.00,VWS V14.00,2013-07-05 17:43:00,
2013-07-05 12:44:00,84.7,46.1,29.67,SSW,202,0.0,10.0,26,0.00,,---,0.00,VWS V14.00,2013-07-05 17:44:00,
2013-07-05 12:45:00,84.7,46.1,29.67,SW,219,0.0,10.0,26,0.00,,---,0.00,VWS V14.00,2013-07-05 17:45:00,
2013-07-05 12:48:00,84.9,46.2,29.67,SW,223,0.0,10.0,26,0.00,,---,0.00,VWS V14.00,2013-07-05 17:48:00,
2013-07-05 12:49:00,84.9,46.2,29.67,SW,226,0.0,10.0,26,0.00,,---,0.00,VWS V14.00,2013-07-05 17:49:00,
2013-07-05 12:50:00,84.9,46.2,29.67,SW,224,0.0,10.0,26,0.00,,---,0.00,VWS V14.00,2013-07-05 17:50:00,
2013-07-05 12:53:00,85.3,45.5,29.67,SSE,164,1.0,10.0,25,0.00,,---,0.00,VWS V14.00,2013-07-05 17:53:00,
2013-07-05 12:54:00,85.5,44.6,29.67,SW,224,0.0,10.0,24,0.00,,---,0.00,VWS V14.00,2013-07-05 17:54:00,
2013-07-05 12:55:00,85.3,47.6,29.67,SW,230,0.0,10.0,27,0.00,,---,0.00,VWS V14.00,2013-07-05 17:55:00,
2013-07-05 12:58:00,85.7,45.9,29.67,SW,236,8.0,10.0,25,0.00,,---,0.00,VWS V14.00,2013-07-05 17:58:00,
2013-07-05 12:59:00,85.7,46.9,29.66,WSW,240,0.0,10.0,26,0.00,,---,0.00,VWS V14.00,2013-07-05 17:59:00,
2013-07-05 13:00:00,86.3,47.4,29.66,SW,222,1.0,1.0,26,0.00,,---,0.00,VWS V14.00,2013-07-05 18:00:00,
2013-07-05 13:03:00,85.9,45.0,29.66,WSW,239,0.0,6.0,24,0.00,,---,0.00,VWS V14.00,2013-07-05 18:03:00,
2013-07-05 13:04:00,85.9,45.0,29.66,SSW,192,5.0,6.0,24,0.00,,---,0.00,VWS V14.00,2013-07-05 18:04:00,
2013-07-05 13:05:00,85.9,45.0,29.66,South,184,0.0,6.0,24,0.00,,---,0.00,VWS V14.00,2013-07-05 18:05:00,
2013-07-05 13:06:00,85.9,45.0,29.66,South,181,1.0,6.0,24,0.00,,---,0.00,VWS V14.00,2013-07-05 18:06:00,
2013-07-05 13:08:00,85.9,45.0,29.66,SW,236,0.0,6.0,24,0.00,,---,0.00,VWS V14.00,2013-07-05 18:08:00,
2013-07-05 13:09:00,85.9,45.0,29.66,SW,236,0.0,6.0,24,0.00,,---,0.00,VWS V14.00,2013-07-05 18:09:00,
2013-07-05 13:10:00,86.5,45.5,29.66,WSW,241,0.0,6.0,24,0.00,,---,0.00,VWS V14.00,2013-07-05 18:10:00,
2013-07-05 13:12:00,86.7,45.6,29.66,WSW,241,0.0,6.0,24,0.00,,---,0.00,VWS V14.00,2013-07-05 18:12:00,
2013-07-05 13:13:00,86.5,45.5,29.65,WSW,237,0.0,6.0,24,0.00,,---,0.00,VWS V14.00,2013-07-05 18:13:00,
2013-07-05 13:14:00,86.5,45.5,29.65,WSW,237,0.0,6.0,24,0.00,,---,0.00,VWS V14.00,2013-07-05 18:14:00,
2013-07-05 13:16:00,86.5,45.5,29.65,SW,223,0.0,6.0,24,0.00,,---,0.00,VWS V14.00,2013-07-05 18:16:00,
2013-07-05 13:17:00,86.5,45.5,29.65,SW,230,0.0,6.0,24,0.00,,---,0.00,VWS V14.00,2013-07-05 18:17:00,
2013-07-05 13:19:00,86.3,46.4,29.65,NNW,329,0.0,6.0,25,0.00,,---,0.00,VWS V14.00,2013-07-05 18:19:00,
2013-07-05 13:21:00,86.3,46.4,29.65,SSW,212,0.0,6.0,25,0.00,,---,0.00,VWS V14.00,2013-07-05 18:21:00,
2013-07-05 13:22:00,86.3,45.3,29.65,South,185,0.0,6.0,24,0.00,,---,0.00,VWS V14.00,2013-07-05 18:22:00,
2013-07-05 13:24:00,86.3,45.3,29.65,South,184,0.0,6.0,24,0.00,,---,0.00,VWS V14.00,2013-07-05 18:24:00,
2013-07-05 13:25:00,86.3,45.3,29.65,South,184,0.0,6.0,24,0.00,,---,0.00,VWS V14.00,2013-07-05 18:25:00,
2013-07-05 13:26:00,86.5,45.5,29.65,South,169,0.0,6.0,24,0.00,,---,0.00,VWS V14.00,2013-07-05 18:26:00,
2013-07-05 13:27:00,86.5,45.5,29.65,South,176,0.0,6.0,24,0.00,,---,0.00,VWS V14.00,2013-07-05 18:27:00,
2013-07-05 13:29:00,86.5,45.5,29.65,SSW,198,0.0,6.0,24,0.00,,---,0.00,VWS V14.00,2013-07-05 18:29:00,
2013-07-05 13:30:00,86.7,45.6,29.65,SSW,199,0.0,0.0,24,0.00,,---,0.00,VWS V14.00,2013-07-05 18:30:00,
2013-07-05 13:31:00,87.2,46.0,29.65,SSW,198,0.0,0.0,24,0.00,,---,0.00,VWS V14.00,2013-07-05 18:31:00,
2013-07-05 13:32:00,87.6,45.3,29.65,SSW,205,2.0,12.0,23,0.00,,---,0.00,VWS V14.00,2013-07-05 18:32:00,
2013-07-05 13:34:00,87.6,45.3,29.65,WSW,248,1.0,12.0,23,0.00,,---,0.00,VWS V14.00,2013-07-05 18:34:00,
2013-07-05 13:35:00,87.6,45.3,29.65,WSW,250,0.0,12.0,23,0.00,,---,0.00,VWS V14.00,2013-07-05 18:35:00,
2013-07-05 13:36:00,87.4,45.1,29.65,WSW,253,0.0,12.0,23,0.00,,---,0.00,VWS V14.00,2013-07-05 18:36:00,
2013-07-05 13:37:00,87.4,45.1,29.65,West,260,0.0,12.0,23,0.00,,---,0.00,VWS V14.00,2013-07-05 18:37:00,
2013-07-05 13:39:00,87.4,45.1,29.65,SSW,210,0.0,12.0,23,0.00,,---,0.00,VWS V14.00,2013-07-05 18:39:00,
2013-07-05 13:40:00,87.4,45.1,29.65,SSW,210,0.0,12.0,23,0.00,,---,0.00,VWS V14.00,2013-07-05 18:40:00,
2013-07-05 13:41:00,87.8,45.4,29.65,SSW,205,0.0,12.0,23,0.00,,---,0.00,VWS V14.00,2013-07-05 18:41:00,
2013-07-05 13:43:00,87.8,45.4,29.65,NW,311,0.0,12.0,23,0.00,,---,0.00,VWS V14.00,2013-07-05 18:43:00,
2013-07-05 13:45:00,87.2,44.9,29.64,SW,232,0.0,12.0,23,0.00,,---,0.00,VWS V14.00,2013-07-05 18:45:00,
2013-07-05 13:46:00,87.0,44.8,29.64,SW,217,0.0,12.0,23,0.00,,---,0.00,VWS V14.00,2013-07-05 18:46:00,
2013-07-05 13:48:00,87.0,44.8,29.64,SW,217,0.0,12.0,23,0.00,,---,0.00,VWS V14.00,2013-07-05 18:48:00,
2013-07-05 13:50:00,87.0,44.8,29.64,SW,224,0.0,12.0,23,0.00,,---,0.00,VWS V14.00,2013-07-05 18:50:00,
2013-07-05 13:51:00,87.0,44.8,29.64,SW,224,0.0,12.0,23,0.00,,---,0.00,VWS V14.00,2013-07-05 18:51:00,
2013-07-05 13:54:00,87.6,45.3,29.64,South,181,0.0,12.0,23,0.00,,---,0.00,VWS V14.00,2013-07-05 18:54:00,
2013-07-05 13:55:00,87.6,45.3,29.64,ESE,102,0.0,12.0,23,0.00,,---,0.00,VWS V14.00,2013-07-05 18:55:00,
2013-07-05 13:56:00,87.6,45.3,29.64,ESE,102,0.0,12.0,23,0.00,,---,0.00,VWS V14.00,2013-07-05 18:56:00,
2013-07-05 13:57:00,88.4,45.9,29.64,ESE,110,0.0,12.0,23,0.00,,---,0.00,VWS V14.00,2013-07-05 18:57:00,
2013-07-05 13:59:00,89.0,46.4,29.63,SSE,167,0.0,0.0,23,0.00,,---,0.00,VWS V14.00,2013-07-05 18:59:00,
2013-07-05 14:00:00,89.0,46.4,29.63,SSE,167,0.0,5.0,23,0.00,,---,0.00,VWS V14.00,2013-07-05 19:00:00,
2013-07-05 14:01:00,89.0,46.4,29.63,South,175,0.0,5.0,23,0.00,,---,0.00,VWS V14.00,2013-07-05 19:01:00,
2013-07-05 14:02:00,89.0,46.4,29.63,South,178,0.0,5.0,23,0.00,,---,0.00,VWS V14.00,2013-07-05 19:02:00,
2013-07-05 14:05:00,89.3,46.7,29.63,WSW,240,5.0,5.0,23,0.00,,---,0.00,VWS V14.00,2013-07-05 19:05:00,
2013-07-05 14:06:00,89.7,47.0,29.63,WSW,241,0.0,5.0,23,0.00,,---,0.00,VWS V14.00,2013-07-05 19:06:00,
2013-07-05 14:07:00,89.7,47.0,29.63,WSW,258,0.0,5.0,23,0.00,,---,0.00,VWS V14.00,2013-07-05 19:07:00,
2013-07-05 14:10:00,89.9,47.2,29.63,SSE,168,0.0,5.0,23,0.00,,---,0.00,VWS V14.00,2013-07-05 19:10:00,
2013-07-05 14:11:00,90.1,47.3,29.63,South,191,0.0,5.0,23,0.00,,---,0.00,VWS V14.00,2013-07-05 19:11:00,
2013-07-05 14:12:00,90.1,46.2,29.63,SSE,155,0.0,5.0,22,0.00,,---,0.00,VWS V14.00,2013-07-05 19:12:00,
2013-07-05 14:15:00,90.1,45.0,29.61,SSW,213,2.0,26.0,21,0.00,,---,0.00,VWS V14.00,2013-07-05 19:15:00,
2013-07-05 14:16:00,90.3,45.1,29.61,SSW,210,0.0,26.0,21,0.00,,---,0.00,VWS V14.00,2013-07-05 19:16:00,
2013-07-05 14:17:00,90.3,46.3,29.61,SSW,210,0.0,26.0,22,0.00,,---,0.00,VWS V14.00,2013-07-05 19:17:00,
2013-07-05 14:18:00,90.5,45.3,29.61,West,263,3.0,26.0,21,0.00,,---,0.00,VWS V14.00,2013-07-05 19:18:00,
2013-07-05 14:20:00,89.9,46.0,29.61,West,268,0.0,26.0,22,0.00,,---,0.00,VWS V14.00,2013-07-05 19:20:00,
2013-07-05 14:21:00,89.7,45.8,29.61,West,272,0.0,26.0,22,0.00,,---,0.00,VWS V14.00,2013-07-05 19:21:00,
2013-07-05 14:22:00,89.7,45.8,29.61,WNW,296,0.0,26.0,22,0.00,,---,0.00,VWS V14.00,2013-07-05 19:22:00,
2013-07-05 14:23:00,89.9,46.0,29.61,SW,215,3.0,26.0,22,0.00,,---,0.00,VWS V14.00,2013-07-05 19:23:00,
2013-07-05 14:25:00,90.1,45.0,29.61,SSW,195,0.0,26.0,21,0.00,,---,0.00,VWS V14.00,2013-07-05 19:25:00,
2013-07-05 14:26:00,90.1,45.0,29.61,SSW,195,0.0,26.0,21,0.00,,---,0.00,VWS V14.00,2013-07-05 19:26:00,
2013-07-05 14:27:00,89.7,44.6,29.61,ESE,116,0.0,26.0,21,0.00,,---,0.00,VWS V14.00,2013-07-05 19:27:00,
2013-07-05 14:28:00,89.7,45.8,29.61,ESE,116,0.0,26.0,22,0.00,,---,0.00,VWS V14.00,2013-07-05 19:28:00,
2013-07-05 14:30:00,90.1,46.2,29.60,ESE,116,0.0,0.0,22,0.00,,---,0.00,VWS V14.00,2013-07-05 19:30:00,
2013-07-05 14:32:00,90.5,46.5,29.60,WNW,285,0.0,0.0,22,0.00,,---,0.00,VWS V14.00,2013-07-05 19:32:00,
2013-07-05 14:33:00,90.5,46.5,29.60,WSW,254,0.0,0.0,22,0.00,,---,0.00,VWS V14.00,2013-07-05 19:33:00,
2013-07-05 14:36:00,90.1,46.2,29.60,WNW,287,7.0,11.0,22,0.00,,---,0.00,VWS V14.00,2013-07-05 19:36:00,
2013-07-05 14:37:00,90.3,46.3,29.60,SW,223,1.0,11.0,22,0.00,,---,0.00,VWS V14.00,2013-07-05 19:37:00,
2013-07-05 14:38:00,89.9,44.8,29.60,SSW,206,10.0,12.0,21,0.00,,---,0.00,VWS V14.00,2013-07-05 19:38:00,
2013-07-05 14:41:00,89.7,45.8,29.60,SSW,212,0.0,12.0,22,0.00,,---,0.00,VWS V14.00,2013-07-05 19:41:00,
2013-07-05 14:42:00,90.1,45.0,29.60,SSW,203,2.0,12.0,21,0.00,,---,0.00,VWS V14.00,2013-07-05 19:42:00,
2013-07-05 14:43:00,89.7,44.6,29.60,South,189,0.0,12.0,21,0.00,,---,0.00,VWS V14.00,2013-07-05 19:43:00,
2013-07-05 14:46:00,89.7,44.6,29.59,South,174,0.0,12.0,21,0.00,,---,0.00,VWS V14.00,2013-07-05 19:46:00,
2013-07-05 14:47:00,89.7,44.6,29.59,South,174,0.0,12.0,21,0.00,,---,0.00,VWS V14.00,2013-07-05 19:47:00,
2013-07-05 14:48:00,89.7,44.6,29.59,South,169,0.0,12.0,21,0.00,,---,0.00,VWS V14.00,2013-07-05 19:48:00,
2013-07-05 14:51:00,89.0,44.0,29.59,ESE,103,0.0,12.0,21,0.00,,---,0.00,VWS V14.00,2013-07-05 19:51:00,
2013-07-05 14:52:00,89.0,44.0,29.59,ESE,103,0.0,12.0,21,0.00,,---,0.00,VWS V14.00,2013-07-05 19:52:00,
2013-07-05 14:53:00,89.0,44.0,29.59,ESE,103,0.0,12.0,21,0.00,,---,0.00,VWS V14.00,2013-07-05 19:53:00,
2013-07-05 14:56:00,89.3,44.3,29.59,ESE,103,0.0,12.0,21,0.00,,---,0.00,VWS V14.00,2013-07-05 19:56:00,
2013-07-05 14:57:00,89.3,44.3,29.59,ESE,103,0.0,12.0,21,0.00,,---,0.00,VWS V14.00,2013-07-05 19:57:00,
2013-07-05 14:58:00,89.5,44.5,29.59,ESE,110,0.0,12.0,21,0.00,,---,0.00,VWS V14.00,2013-07-05 19:58:00,